sensor_id;sensor_type;location;lat;lon;timestamp;pressure;altitude;pressure_sealevel;temperature;humidity
34124;BME280;13153;52.316;21.166;2023-03-31T00:01:36;99186.19;;;14.50;66.29
34124;BME280;13153;52.316;21.166;2023-03-31T00:04:10;99184.41;;;14.49;66.00
34124;BME280;13153;52.316;21.166;2023-03-31T00:06:40;99189.72;;;14.48;66.11
34124;BME280;13153;52.316;21.166;2023-03-31T00:09:13;99200.28;;;14.52;66.07
34124;BME280;13153;52.316;21.166;2023-03-31T00:11:40;99191.44;;;14.53;65.90
34124;BME280;13153;52.316;21.166;2023-03-31T00:14:07;99189.69;;;14.52;65.57
34124;BME280;13153;52.316;21.166;2023-03-31T00:16:37;99190.56;;;14.53;65.79
34124;BME280;13153;52.316;21.166;2023-03-31T00:19:04;99186.16;;;14.53;65.54
34124;BME280;13153;52.316;21.166;2023-03-31T00:21:31;99177.31;;;14.54;65.15
34124;BME280;13153;52.316;21.166;2023-03-31T00:24:10;99181.78;;;14.49;65.13
34124;BME280;13153;52.316;21.166;2023-03-31T00:26:38;99189.78;;;14.43;65.39
34124;BME280;13153;52.316;21.166;2023-03-31T00:29:06;99186.22;;;14.44;65.07
34124;BME280;13153;52.316;21.166;2023-03-31T00:31:33;99187.97;;;14.45;64.89
34124;BME280;13153;52.316;21.166;2023-03-31T00:33:59;99184.44;;;14.46;65.21
34124;BME280;13153;52.316;21.166;2023-03-31T00:36:25;99189.72;;;14.49;64.94
34124;BME280;13153;52.316;21.166;2023-03-31T00:38:59;99186.19;;;14.47;64.97
34124;BME280;13153;52.316;21.166;2023-03-31T00:41:29;99180.94;;;14.44;65.18
34124;BME280;13153;52.316;21.166;2023-03-31T00:44:15;99186.19;;;14.47;65.26
34124;BME280;13153;52.316;21.166;2023-03-31T00:47:04;99183.53;;;14.49;65.13
34124;BME280;13153;52.316;21.166;2023-03-31T00:49:47;99184.41;;;14.49;64.82
34124;BME280;13153;52.316;21.166;2023-03-31T00:54:58;99190.56;;;14.53;64.34
34124;BME280;13153;52.316;21.166;2023-03-31T00:57:28;99187.91;;;14.54;64.73
34124;BME280;13153;52.316;21.166;2023-03-31T01:00:01;99189.69;;;14.54;64.58
34124;BME280;13153;52.316;21.166;2023-03-31T01:02:38;99181.72;;;14.57;64.42
34124;BME280;13153;52.316;21.166;2023-03-31T01:05:07;99179.06;;;14.59;64.03
34124;BME280;13153;52.316;21.166;2023-03-31T01:07:44;99179.06;;;14.59;63.89
34124;BME280;13153;52.316;21.166;2023-03-31T01:10:12;99177.31;;;14.54;64.43
34124;BME280;13153;52.316;21.166;2023-03-31T01:12:43;99179.06;;;14.59;64.15
34124;BME280;13153;52.316;21.166;2023-03-31T01:15:11;99166.72;;;14.54;63.93
34124;BME280;13153;52.316;21.166;2023-03-31T01:17:37;99172.03;;;14.54;64.18
34124;BME280;13153;52.316;21.166;2023-03-31T01:23:38;99167.56;;;14.60;63.76
34124;BME280;13153;52.316;21.166;2023-03-31T01:35:57;99152.56;;;14.59;63.71
34124;BME280;13153;52.316;21.166;2023-03-31T01:41:42;99157.91;;;14.56;63.50
34124;BME280;13153;52.316;21.166;2023-03-31T01:47:34;99161.41;;;14.58;63.40
34124;BME280;13153;52.316;21.166;2023-03-31T01:55:41;99158.84;;;14.48;63.75
34124;BME280;13153;52.316;21.166;2023-03-31T01:58:27;99161.47;;;14.51;63.69
34124;BME280;13153;52.316;21.166;2023-03-31T02:01:19;99164.97;;;14.53;63.80
34124;BME280;13153;52.316;21.166;2023-03-31T02:03:57;99166.75;;;14.51;63.48
34124;BME280;13153;52.316;21.166;2023-03-31T02:06:34;99165.00;;;14.49;63.82
34124;BME280;13153;52.316;21.166;2023-03-31T02:09:12;99167.69;;;14.44;63.99
34124;BME280;13153;52.316;21.166;2023-03-31T02:11:42;99166.81;;;14.45;63.86
34124;BME280;13153;52.316;21.166;2023-03-31T02:14:11;99171.28;;;14.43;63.66
34124;BME280;13153;52.316;21.166;2023-03-31T02:16:44;99166.88;;;14.39;64.03
34124;BME280;13153;52.316;21.166;2023-03-31T02:19:16;99161.56;;;14.39;64.01
34124;BME280;13153;52.316;21.166;2023-03-31T02:21:47;99167.75;;;14.40;63.94
34124;BME280;13153;52.316;21.166;2023-03-31T02:24:19;99163.31;;;14.40;64.05
34124;BME280;13153;52.316;21.166;2023-03-31T02:27:17;99163.34;;;14.43;63.89
34124;BME280;13153;52.316;21.166;2023-03-31T02:29:44;99163.31;;;14.40;63.98
34124;BME280;13153;52.316;21.166;2023-03-31T02:32:36;99173.03;;;14.43;63.57
34124;BME280;13153;52.316;21.166;2023-03-31T02:35:06;99174.78;;;14.44;63.57
34124;BME280;13153;52.316;21.166;2023-03-31T02:37:33;99173.94;;;14.37;63.83
34124;BME280;13153;52.316;21.166;2023-03-31T02:40:06;99166.00;;;14.36;63.78
34124;BME280;13153;52.316;21.166;2023-03-31T02:42:38;99169.53;;;14.38;63.66
34124;BME280;13153;52.316;21.166;2023-03-31T02:48:26;99164.19;;;14.41;64.01
34124;BME280;13153;52.316;21.166;2023-03-31T02:53:38;99174.81;;;14.42;63.96
34124;BME280;13153;52.316;21.166;2023-03-31T03:01:59;99161.56;;;14.39;63.89
34124;BME280;13153;52.316;21.166;2023-03-31T03:10:53;99176.63;;;14.31;63.48
34124;BME280;13153;52.316;21.166;2023-03-31T03:16:27;99185.41;;;14.35;63.06
34124;BME280;13153;52.316;21.166;2023-03-31T03:19:05;99181.00;;;14.35;63.48
34124;BME280;13153;52.316;21.166;2023-03-31T03:21:32;99184.59;;;14.28;63.25
34124;BME280;13153;52.316;21.166;2023-03-31T03:23:58;99191.63;;;14.29;63.11
34124;BME280;13153;52.316;21.166;2023-03-31T03:26:25;99189.00;;;14.28;63.25
34124;BME280;13153;52.316;21.166;2023-03-31T03:28:55;99193.41;;;14.27;63.60
34124;BME280;13153;52.316;21.166;2023-03-31T03:31:22;99191.66;;;14.26;63.46
34124;BME280;13153;52.316;21.166;2023-03-31T03:33:50;99191.66;;;14.26;63.39
34124;BME280;13153;52.316;21.166;2023-03-31T03:36:17;99198.69;;;14.29;63.46
34124;BME280;13153;52.316;21.166;2023-03-31T03:38:43;99191.63;;;14.31;63.31
34124;BME280;13153;52.316;21.166;2023-03-31T03:41:09;99193.41;;;14.30;63.35
34124;BME280;13153;52.316;21.166;2023-03-31T03:43:36;99202.22;;;14.29;62.99
34124;BME280;13153;52.316;21.166;2023-03-31T03:46:01;99189.84;;;14.31;63.01
34124;BME280;13153;52.316;21.166;2023-03-31T03:48:27;99183.72;;;14.28;63.01
34124;BME280;13153;52.316;21.166;2023-03-31T03:50:53;99197.81;;;14.27;62.81
34124;BME280;13153;52.316;21.166;2023-03-31T03:53:20;99198.72;;;14.26;62.92
34124;BME280;13153;52.316;21.166;2023-03-31T03:55:45;99208.44;;;14.22;63.04
34124;BME280;13153;52.316;21.166;2023-03-31T03:58:15;99206.69;;;14.21;62.90
34124;BME280;13153;52.316;21.166;2023-03-31T04:00:41;99210.25;;;14.15;62.70
34124;BME280;13153;52.316;21.166;2023-03-31T04:03:09;99213.81;;;14.11;63.10
34124;BME280;13153;52.316;21.166;2023-03-31T04:05:35;99210.31;;;14.06;63.30
34124;BME280;13153;52.316;21.166;2023-03-31T04:08:01;99215.59;;;14.06;63.18
34124;BME280;13153;52.316;21.166;2023-03-31T04:10:27;99220.91;;;14.03;63.10
34124;BME280;13153;52.316;21.166;2023-03-31T04:12:53;99220.91;;;14.02;63.62
34124;BME280;13153;52.316;21.166;2023-03-31T04:15:19;99224.44;;;14.02;63.06
34124;BME280;13153;52.316;21.166;2023-03-31T04:17:45;99208.56;;;14.05;63.21
34124;BME280;13153;52.316;21.166;2023-03-31T04:20:16;99207.66;;;14.08;63.32
34124;BME280;13153;52.316;21.166;2023-03-31T04:22:42;99214.69;;;14.09;63.41
34124;BME280;13153;52.316;21.166;2023-03-31T04:25:13;99210.31;;;14.08;62.95
34124;BME280;13153;52.316;21.166;2023-03-31T04:27:48;99209.41;;;14.09;62.94
34124;BME280;13153;52.316;21.166;2023-03-31T04:30:23;99210.28;;;14.09;63.21
34124;BME280;13153;52.316;21.166;2023-03-31T04:32:55;99209.41;;;14.12;63.10
34124;BME280;13153;52.316;21.166;2023-03-31T04:35:25;99206.75;;;14.12;62.49
34124;BME280;13153;52.316;21.166;2023-03-31T04:37:52;99212.91;;;14.14;62.49
34124;BME280;13153;52.316;21.166;2023-03-31T04:40:24;99212.88;;;14.17;62.82
34124;BME280;13153;52.316;21.166;2023-03-31T04:42:50;99204.94;;;14.17;62.65
34124;BME280;13153;52.316;21.166;2023-03-31T04:45:16;99209.34;;;14.21;62.23
34124;BME280;13153;52.316;21.166;2023-03-31T04:47:43;99197.88;;;14.20;62.14
34124;BME280;13153;52.316;21.166;2023-03-31T04:50:09;99201.41;;;14.21;62.00
34124;BME280;13153;52.316;21.166;2023-03-31T04:52:36;99197.84;;;14.24;62.13
34124;BME280;13153;52.316;21.166;2023-03-31T04:55:03;99197.84;;;14.24;61.37
34124;BME280;13153;52.316;21.166;2023-03-31T04:57:29;99204.00;;;14.26;61.23
34124;BME280;13153;52.316;21.166;2023-03-31T04:59:55;99196.06;;;14.27;61.63
34124;BME280;13153;52.316;21.166;2023-03-31T05:02:21;99195.16;;;14.31;61.27
34124;BME280;13153;52.316;21.166;2023-03-31T05:04:51;99201.31;;;14.33;61.23
34124;BME280;13153;52.316;21.166;2023-03-31T05:07:18;99198.69;;;14.32;60.91
34124;BME280;13153;52.316;21.166;2023-03-31T05:09:44;99190.69;;;14.38;61.09
34124;BME280;13153;52.316;21.166;2023-03-31T05:12:10;99188.03;;;14.42;60.23
34124;BME280;13153;52.316;21.166;2023-03-31T05:14:36;99191.50;;;14.47;60.29
34124;BME280;13153;52.316;21.166;2023-03-31T05:17:02;99184.38;;;14.56;59.89
34124;BME280;13153;52.316;21.166;2023-03-31T05:19:28;99191.25;;;14.76;59.57
34124;BME280;13153;52.316;21.166;2023-03-31T05:21:54;99196.00;;;15.25;59.47
34124;BME280;13153;52.316;21.166;2023-03-31T05:24:20;99200.19;;;15.46;58.07
34124;BME280;13153;52.316;21.166;2023-03-31T05:26:45;99187.81;;;15.45;57.70
34124;BME280;13153;52.316;21.166;2023-03-31T05:29:20;99194.03;;;15.42;57.56
34124;BME280;13153;52.316;21.166;2023-03-31T05:31:46;99192.28;;;15.41;57.62
34124;BME280;13153;52.316;21.166;2023-03-31T05:34:13;99190.59;;;15.36;57.86
34124;BME280;13153;52.316;21.166;2023-03-31T05:36:39;99185.25;;;15.37;58.05
34124;BME280;13153;52.316;21.166;2023-03-31T05:39:05;99185.28;;;15.34;58.17
34124;BME280;13153;52.316;21.166;2023-03-31T05:41:33;99185.34;;;15.31;58.34
34124;BME280;13153;52.316;21.166;2023-03-31T05:43:58;99175.66;;;15.29;58.28
34124;BME280;13153;52.316;21.166;2023-03-31T05:46:24;99176.53;;;15.29;58.53
34124;BME280;13153;52.316;21.166;2023-03-31T05:48:51;99189.75;;;15.32;58.10
34124;BME280;13153;52.316;21.166;2023-03-31T05:51:17;99186.25;;;15.27;58.75
34124;BME280;13153;52.316;21.166;2023-03-31T05:53:43;99183.63;;;15.27;59.05
34124;BME280;13153;52.316;21.166;2023-03-31T05:56:09;99180.91;;;15.32;58.87
34124;BME280;13153;52.316;21.166;2023-03-31T05:58:36;99182.63;;;15.36;58.61
34124;BME280;13153;52.316;21.166;2023-03-31T06:01:14;99183.50;;;15.36;58.87
34124;BME280;13153;52.316;21.166;2023-03-31T06:03:48;99172.91;;;15.36;58.74
34124;BME280;13153;52.316;21.166;2023-03-31T06:06:14;99172.88;;;15.38;58.51
34124;BME280;13153;52.316;21.166;2023-03-31T06:08:45;99179.94;;;15.40;58.71
34124;BME280;13153;52.316;21.166;2023-03-31T06:11:15;99178.16;;;15.41;58.70
34124;BME280;13153;52.316;21.166;2023-03-31T06:13:44;99178.13;;;15.44;58.83
34124;BME280;13153;52.316;21.166;2023-03-31T06:16:13;99183.41;;;15.45;58.80
34124;BME280;13153;52.316;21.166;2023-03-31T06:18:40;99177.19;;;15.46;58.78
34124;BME280;13153;52.316;21.166;2023-03-31T06:21:07;99177.22;;;15.45;58.88
34124;BME280;13153;52.316;21.166;2023-03-31T06:23:33;99175.53;;;15.39;58.86
34124;BME280;13153;52.316;21.166;2023-03-31T06:26:05;99187.06;;;15.34;58.66
34124;BME280;13153;52.316;21.166;2023-03-31T06:28:34;99178.25;;;15.32;58.87
34124;BME280;13153;52.316;21.166;2023-03-31T06:31:10;99177.41;;;15.30;59.04
34124;BME280;13153;52.316;21.166;2023-03-31T06:33:38;99177.41;;;15.28;59.38
34124;BME280;13153;52.316;21.166;2023-03-31T06:36:05;99178.34;;;15.26;59.39
34124;BME280;13153;52.316;21.166;2023-03-31T06:38:33;99184.47;;;15.31;59.34
34124;BME280;13153;52.316;21.166;2023-03-31T06:40:59;99179.88;;;15.43;59.27
34124;BME280;13153;52.316;21.166;2023-03-31T06:43:25;99174.25;;;15.69;58.81
34124;BME280;13153;52.316;21.166;2023-03-31T06:45:55;99173.00;;;15.96;57.83
34124;BME280;13153;52.316;21.166;2023-03-31T06:48:22;99163.78;;;16.18;57.15
34124;BME280;13153;52.316;21.166;2023-03-31T06:50:48;99168.53;;;16.54;56.58
34124;BME280;13153;52.316;21.166;2023-03-31T06:53:14;99175.31;;;17.19;54.86
34124;BME280;13153;52.316;21.166;2023-03-31T06:55:40;99177.72;;;17.31;53.87
34124;BME280;13153;52.316;21.166;2023-03-31T06:58:06;99168.16;;;17.23;53.99
34124;BME280;13153;52.316;21.166;2023-03-31T07:00:32;99166.78;;;17.02;53.94
34124;BME280;13153;52.316;21.166;2023-03-31T07:02:59;99180.34;;;16.87;54.71
34124;BME280;13153;52.316;21.166;2023-03-31T07:05:26;99176.91;;;16.80;54.99
34124;BME280;13153;52.316;21.166;2023-03-31T07:07:58;99177.09;;;16.71;55.07
34124;BME280;13153;52.316;21.166;2023-03-31T07:10:27;99175.41;;;16.67;55.05
34124;BME280;13153;52.316;21.166;2023-03-31T07:12:54;99176.25;;;16.69;55.09
34124;BME280;13153;52.316;21.166;2023-03-31T07:15:20;99169.19;;;16.68;55.42
34124;BME280;13153;52.316;21.166;2023-03-31T07:17:46;99170.94;;;16.69;55.29
34124;BME280;13153;52.316;21.166;2023-03-31T07:20:17;99174.25;;;16.80;55.08
34124;BME280;13153;52.316;21.166;2023-03-31T07:22:45;99181.16;;;16.90;54.77
34124;BME280;13153;52.316;21.166;2023-03-31T07:25:14;99170.47;;;16.93;54.50
34124;BME280;13153;52.316;21.166;2023-03-31T07:27:41;99172.78;;;17.11;54.09
34124;BME280;13153;52.316;21.166;2023-03-31T07:30:15;99174.22;;;17.29;53.75
34124;BME280;13153;52.316;21.166;2023-03-31T07:32:42;99179.38;;;17.35;53.27
34124;BME280;13153;52.316;21.166;2023-03-31T07:35:10;99183.66;;;17.42;53.30
34124;BME280;13153;52.316;21.166;2023-03-31T07:37:43;99172.91;;;17.48;53.18
34124;BME280;13153;52.316;21.166;2023-03-31T07:40:18;99174.47;;;17.59;52.29
34124;BME280;13153;52.316;21.166;2023-03-31T07:42:45;99176.03;;;17.70;51.91
34124;BME280;13153;52.316;21.166;2023-03-31T07:45:14;99160.56;;;17.88;52.20
34124;BME280;13153;52.316;21.166;2023-03-31T07:47:42;99166.13;;;18.14;51.25
34124;BME280;13153;52.316;21.166;2023-03-31T07:50:09;99165.41;;;18.44;50.28
34124;BME280;13153;52.316;21.166;2023-03-31T07:52:35;99165.22;;;18.51;49.71
34124;BME280;13153;52.316;21.166;2023-03-31T07:55:01;99163.66;;;18.43;49.96
34124;BME280;13153;52.316;21.166;2023-03-31T07:57:28;99157.00;;;18.60;49.86
34124;BME280;13153;52.316;21.166;2023-03-31T07:59:54;99155.44;;;18.87;49.07
34124;BME280;13153;52.316;21.166;2023-03-31T08:02:20;99149.81;;;18.97;48.24
34124;BME280;13153;52.316;21.166;2023-03-31T08:04:46;99151.28;;;19.07;48.12
34124;BME280;13153;52.316;21.166;2023-03-31T08:07:14;99147.56;;;19.13;48.26
34124;BME280;13153;52.316;21.166;2023-03-31T08:09:45;99135.38;;;19.35;47.80
34124;BME280;13153;52.316;21.166;2023-03-31T08:12:11;99128.97;;;20.00;47.25
34124;BME280;13153;52.316;21.166;2023-03-31T08:14:38;99123.75;;;20.23;45.57
34124;BME280;13153;52.316;21.166;2023-03-31T08:17:04;99123.28;;;20.37;45.36
34124;BME280;13153;52.316;21.166;2023-03-31T08:19:29;99125.06;;;20.38;44.32
34124;BME280;13153;52.316;21.166;2023-03-31T08:21:55;99119.75;;;20.36;44.49
34124;BME280;13153;52.316;21.166;2023-03-31T08:24:21;99106.38;;;20.38;45.04
34124;BME280;13153;52.316;21.166;2023-03-31T08:26:47;99111.81;;;20.33;44.72
34124;BME280;13153;52.316;21.166;2023-03-31T08:29:13;99112.25;;;20.21;44.54
34124;BME280;13153;52.316;21.166;2023-03-31T08:31:39;99121.06;;;20.23;44.70
34124;BME280;13153;52.316;21.166;2023-03-31T08:34:05;99115.69;;;20.25;44.49
34124;BME280;13153;52.316;21.166;2023-03-31T08:36:31;99122.38;;;20.11;44.32
34124;BME280;13153;52.316;21.166;2023-03-31T08:38:58;99114.59;;;20.04;44.55
34124;BME280;13153;52.316;21.166;2023-03-31T08:44:21;99110.25;;;20.01;44.55
34124;BME280;13153;52.316;21.166;2023-03-31T08:46:54;99107.38;;;19.79;44.90
34124;BME280;13153;52.316;21.166;2023-03-31T08:49:23;99103.19;;;19.71;45.10
34124;BME280;13153;52.316;21.166;2023-03-31T08:52:01;99095.78;;;19.53;45.64
34124;BME280;13153;52.316;21.166;2023-03-31T08:55:02;99088.41;;;19.30;45.81
34124;BME280;13153;52.316;21.166;2023-03-31T09:00:18;99092.88;;;19.00;47.10
34124;BME280;13153;52.316;21.166;2023-03-31T09:02:59;99095.72;;;18.94;47.39
34124;BME280;13153;52.316;21.166;2023-03-31T09:06:00;99091.13;;;18.99;47.61
34124;BME280;13153;52.316;21.166;2023-03-31T09:08:38;99096.03;;;19.12;47.62
34124;BME280;13153;52.316;21.166;2023-03-31T09:14:10;99089.59;;;19.20;47.43
34124;BME280;13153;52.316;21.166;2023-03-31T09:22:32;99088.00;;;18.83;48.49
34124;BME280;13153;52.316;21.166;2023-03-31T09:25:09;99074.81;;;18.78;48.80
34124;BME280;13153;52.316;21.166;2023-03-31T09:27:40;99077.41;;;18.82;48.80
34124;BME280;13153;52.316;21.166;2023-03-31T09:30:28;99082.72;;;18.82;48.78
34124;BME280;13153;52.316;21.166;2023-03-31T09:33:23;99083.44;;;18.88;48.31
34124;BME280;13153;52.316;21.166;2023-03-31T09:35:53;99068.06;;;18.98;48.66
34124;BME280;13153;52.316;21.166;2023-03-31T09:38:18;99072.47;;;18.99;47.86
34124;BME280;13153;52.316;21.166;2023-03-31T09:40:44;99074.31;;;18.97;48.03
34124;BME280;13153;52.316;21.166;2023-03-31T09:43:23;99065.31;;;19.01;47.96
34124;BME280;13153;52.316;21.166;2023-03-31T09:45:50;99070.34;;;19.10;48.66
34124;BME280;13153;52.316;21.166;2023-03-31T09:48:22;99072.09;;;19.11;48.18
34124;BME280;13153;52.316;21.166;2023-03-31T09:50:57;99066.34;;;19.25;48.06
34124;BME280;13153;52.316;21.166;2023-03-31T09:53:38;99068.59;;;19.38;48.04
34124;BME280;13153;52.316;21.166;2023-03-31T09:56:07;99058.47;;;19.51;46.82
34124;BME280;13153;52.316;21.166;2023-03-31T09:58:44;99058.53;;;19.48;46.60
34124;BME280;13153;52.316;21.166;2023-03-31T10:01:14;99050.66;;;19.43;46.96
34124;BME280;13153;52.316;21.166;2023-03-31T10:03:52;99054.94;;;19.49;46.92
34124;BME280;13153;52.316;21.166;2023-03-31T10:06:19;99056.69;;;19.52;47.04
34124;BME280;13153;52.316;21.166;2023-03-31T10:08:58;99039.59;;;19.57;46.92
34124;BME280;13153;52.316;21.166;2023-03-31T10:11:26;99047.50;;;19.60;46.78
34124;BME280;13153;52.316;21.166;2023-03-31T10:13:58;99036.50;;;19.69;46.50
34124;BME280;13153;52.316;21.166;2023-03-31T10:16:50;99034.56;;;19.74;45.69
34124;BME280;13153;52.316;21.166;2023-03-31T10:19:27;99029.22;;;19.74;46.04
34124;BME280;13153;52.316;21.166;2023-03-31T10:22:03;99031.03;;;19.74;45.94
34124;BME280;13153;52.316;21.166;2023-03-31T10:24:44;99020.25;;;19.77;45.81
34124;BME280;13153;52.316;21.166;2023-03-31T10:27:29;99030.72;;;19.83;45.86
34124;BME280;13153;52.316;21.166;2023-03-31T10:30:02;99027.25;;;19.81;45.80
34124;BME280;13153;52.316;21.166;2023-03-31T10:32:32;99025.44;;;19.82;45.97
34124;BME280;13153;52.316;21.166;2023-03-31T10:35:19;99013.66;;;19.62;46.13
34124;BME280;13153;52.316;21.166;2023-03-31T10:37:49;99019.34;;;19.78;46.52
34124;BME280;13153;52.316;21.166;2023-03-31T10:40:24;99019.91;;;19.88;45.96
34124;BME280;13153;52.316;21.166;2023-03-31T10:43:25;99012.53;;;19.96;45.19
34124;BME280;13153;52.316;21.166;2023-03-31T10:45:58;99007.38;;;20.16;45.25
34124;BME280;13153;52.316;21.166;2023-03-31T10:51:03;99008.72;;;20.28;44.14
34124;BME280;13153;52.316;21.166;2023-03-31T10:53:44;99007.63;;;20.33;44.51
34124;BME280;13153;52.316;21.166;2023-03-31T10:56:35;98997.44;;;20.46;44.36
34124;BME280;13153;52.316;21.166;2023-03-31T11:04:43;98991.81;;;20.54;43.48
34124;BME280;13153;52.316;21.166;2023-03-31T11:10:06;98980.34;;;20.50;43.55
34124;BME280;13153;52.316;21.166;2023-03-31T11:15:44;98973.66;;;20.38;43.25
34124;BME280;13153;52.316;21.166;2023-03-31T11:18:31;98977.97;;;20.42;43.29
34124;BME280;13153;52.316;21.166;2023-03-31T11:24:00;98977.34;;;20.59;42.47
34124;BME280;13153;52.316;21.166;2023-03-31T11:26:59;98962.91;;;20.65;42.11
34124;BME280;13153;52.316;21.166;2023-03-31T11:33:11;98961.50;;;20.55;41.78
34124;BME280;13153;52.316;21.166;2023-03-31T11:36:08;98966.13;;;20.50;42.24
34124;BME280;13153;52.316;21.166;2023-03-31T11:42:06;98956.13;;;20.55;42.98
34124;BME280;13153;52.316;21.166;2023-03-31T11:44:41;98942.56;;;20.61;43.02
34124;BME280;13153;52.316;21.166;2023-03-31T11:47:18;98945.47;;;20.78;42.90
34124;BME280;13153;52.316;21.166;2023-03-31T11:49:54;98946.41;;;20.77;42.73
34124;BME280;13153;52.316;21.166;2023-03-31T11:52:32;98937.44;;;20.78;42.35
34124;BME280;13153;52.316;21.166;2023-03-31T12:05:30;98942.75;;;20.80;42.23
34124;BME280;13153;52.316;21.166;2023-03-31T12:10:45;98929.16;;;20.84;42.36
34124;BME280;13153;52.316;21.166;2023-03-31T12:13:33;98921.53;;;20.75;42.40
34124;BME280;13153;52.316;21.166;2023-03-31T12:16:45;98922.00;;;20.85;42.30
34124;BME280;13153;52.316;21.166;2023-03-31T12:22:43;98908.81;;;20.80;42.18
34124;BME280;13153;52.316;21.166;2023-03-31T12:25:20;98910.06;;;20.71;41.93
34124;BME280;13153;52.316;21.166;2023-03-31T12:27:51;98910.06;;;20.71;42.36
34124;BME280;13153;52.316;21.166;2023-03-31T12:30:30;98899.38;;;20.71;42.79
34124;BME280;13153;52.316;21.166;2023-03-31T12:45:48;98884.75;;;20.80;42.08
34124;BME280;13153;52.316;21.166;2023-03-31T12:56:00;98869.25;;;21.12;41.58
34124;BME280;13153;52.316;21.166;2023-03-31T13:01:17;98859.59;;;21.07;41.48
34124;BME280;13153;52.316;21.166;2023-03-31T13:11:41;98849.06;;;20.81;40.77
34124;BME280;13153;52.316;21.166;2023-03-31T13:14:21;98845.69;;;20.77;40.22
34124;BME280;13153;52.316;21.166;2023-03-31T13:16:49;98836.53;;;20.83;40.16
34124;BME280;13153;52.316;21.166;2023-03-31T13:19:42;98839.19;;;20.83;40.61
34124;BME280;13153;52.316;21.166;2023-03-31T13:22:30;98841.75;;;20.86;40.78
34124;BME280;13153;52.316;21.166;2023-03-31T13:28:07;98820.91;;;20.94;40.67
34124;BME280;13153;52.316;21.166;2023-03-31T13:33:34;98824.59;;;20.92;40.26
34124;BME280;13153;52.316;21.166;2023-03-31T13:48:23;98800.72;;;20.87;40.67
34124;BME280;13153;52.316;21.166;2023-03-31T13:51:18;98802.56;;;20.85;40.13
34124;BME280;13153;52.316;21.166;2023-03-31T13:54:13;98789.22;;;20.85;40.68
34124;BME280;13153;52.316;21.166;2023-03-31T13:57:23;98795.03;;;20.74;40.39
34124;BME280;13153;52.316;21.166;2023-03-31T14:05:56;98788.94;;;20.71;39.90
34124;BME280;13153;52.316;21.166;2023-03-31T14:08:51;98791.03;;;20.63;39.99
34124;BME280;13153;52.316;21.166;2023-03-31T14:11:26;98790.47;;;20.55;40.26
34124;BME280;13153;52.316;21.166;2023-03-31T14:14:14;98780.88;;;20.49;40.61
34124;BME280;13153;52.316;21.166;2023-03-31T14:17:01;98775.91;;;20.40;40.21
34124;BME280;13153;52.316;21.166;2023-03-31T14:34:15;98761.81;;;20.13;41.64
34124;BME280;13153;52.316;21.166;2023-03-31T14:37:01;98757.34;;;20.14;41.92
34124;BME280;13153;52.316;21.166;2023-03-31T14:39:48;98758.31;;;20.11;41.96
34124;BME280;13153;52.316;21.166;2023-03-31T14:42:19;98760.88;;;20.14;42.48
34124;BME280;13153;52.316;21.166;2023-03-31T14:44:47;98762.66;;;20.14;41.82
34124;BME280;13153;52.316;21.166;2023-03-31T14:47:27;98754.72;;;20.12;42.38
34124;BME280;13153;52.316;21.166;2023-03-31T14:52:38;98746.06;;;20.05;42.46
34124;BME280;13153;52.316;21.166;2023-03-31T14:55:05;98743.47;;;20.04;42.71
34124;BME280;13153;52.316;21.166;2023-03-31T14:57:36;98737.53;;;19.96;42.46
34124;BME280;13153;52.316;21.166;2023-03-31T15:00:10;98747.41;;;19.94;42.17
34124;BME280;13153;52.316;21.166;2023-03-31T15:02:42;98738.94;;;19.83;42.39
34124;BME280;13153;52.316;21.166;2023-03-31T15:07:49;98730.91;;;19.83;42.49
34124;BME280;13153;52.316;21.166;2023-03-31T15:10:19;98723.72;;;19.85;42.11
34124;BME280;13153;52.316;21.166;2023-03-31T15:12:48;98726.34;;;19.86;42.25
34124;BME280;13153;52.316;21.166;2023-03-31T15:15:16;98723.72;;;19.85;41.93
34124;BME280;13153;52.316;21.166;2023-03-31T15:17:46;98721.75;;;19.90;42.07
34124;BME280;13153;52.316;21.166;2023-03-31T15:20:28;98717.09;;;19.95;42.47
34124;BME280;13153;52.316;21.166;2023-03-31T15:22:58;98719.66;;;19.98;42.20
34124;BME280;13153;52.316;21.166;2023-03-31T15:25:32;98716.19;;;19.96;41.91
34124;BME280;13153;52.316;21.166;2023-03-31T15:28:15;98715.13;;;20.00;42.44
34124;BME280;13153;52.316;21.166;2023-03-31T15:30:42;98714.09;;;20.04;43.49
34124;BME280;13153;52.316;21.166;2023-03-31T15:33:21;98719.19;;;20.10;44.40
34124;BME280;13153;52.316;21.166;2023-03-31T15:35:50;98703.06;;;20.13;43.57
34124;BME280;13153;52.316;21.166;2023-03-31T15:38:16;98712.00;;;20.12;42.21
34124;BME280;13153;52.316;21.166;2023-03-31T15:40:48;98698.59;;;20.14;42.51
34124;BME280;13153;52.316;21.166;2023-03-31T15:45:55;98703.13;;;20.11;43.10
34124;BME280;13153;52.316;21.166;2023-03-31T15:48:35;98711.06;;;20.13;42.88
34124;BME280;13153;52.316;21.166;2023-03-31T15:53:42;98699.00;;;20.03;43.37
34124;BME280;13153;52.316;21.166;2023-03-31T15:56:40;98715.84;;;19.82;43.25
34124;BME280;13153;52.316;21.166;2023-03-31T15:59:27;98707.94;;;19.30;43.59
34124;BME280;13153;52.316;21.166;2023-03-31T16:01:55;98707.81;;;19.08;43.80
34124;BME280;13153;52.316;21.166;2023-03-31T16:04:31;98706.56;;;18.94;44.38
34124;BME280;13153;52.316;21.166;2023-03-31T16:07:04;98712.09;;;18.88;45.20
34124;BME280;13153;52.316;21.166;2023-03-31T16:12:49;98697.09;;;18.85;44.79
34124;BME280;13153;52.316;21.166;2023-03-31T16:15:28;98696.72;;;18.69;45.25
34124;BME280;13153;52.316;21.166;2023-03-31T16:18:00;98698.16;;;18.52;45.73
34124;BME280;13153;52.316;21.166;2023-03-31T16:20:31;98704.03;;;18.36;46.48
34124;BME280;13153;52.316;21.166;2023-03-31T16:23:13;98695.31;;;18.31;46.69
34124;BME280;13153;52.316;21.166;2023-03-31T16:25:40;98692.69;;;18.30;46.71